< < Back
Terminal Aerodrome Forecast


Current Version              Previous Versions:   1  2  3  4  5  6  7  8  9  

Terminal Aerodrome Forecast

805
FTUS42 KTAE 231700
TAFVLD
TAF
KVLD 231724Z 2318/2418 05011KT P6SM SCT040
     FM240300 05008KT P6SM SCT025
     FM240800 04007KT P6SM BKN012
      TEMPO 2410/2413 BKN007
     FM241500 04008KT P6SM BKN025=

Latest METAR

027
SAUS70 KWBC 232200 RRH
MTRVLD
METAR KVLD 232153Z 02011KT 10SM FEW055 27/16 A3004 RMK AO2 SLP178
T02720156


USA.gov is the U.S. government's official web portal to all federal, state and local government web resources and services.